Time;durP1;ratioP1;P1;durP2;ratioP2;P2;SDS_P1;SDS_P2;PMS_P1;PMS_P2;Temp;Humidity;BMP_temperature;BMP_pressure;BME280_temperature;BME280_humidity;BME280_pressure;Samples;Min_cycle;Max_cycle;Signal;HPM_P1;HPM_P2
2022/10/30 00:00:38;;;;;;;13.68;9.10;;;;;;;13.76;84.10;99105.81;5017269;28;20041;-82
2022/10/30 00:03:04;;;;;;;14.43;8.95;;;;;;;13.91;83.31;99092.44;5021287;28;20078;-82
2022/10/30 00:05:29;;;;;;;13.48;8.50;;;;;;;13.87;83.52;99098.63;5009661;28;20555;-83
2022/10/30 00:07:55;;;;;;;16.52;9.10;;;;;;;14.11;82.81;99097.88;5009075;28;20065;-83
2022/10/30 00:10:21;;;;;;;13.05;7.57;;;;;;;14.00;83.14;99108.88;5023380;28;20052;-82
2022/10/30 00:12:46;;;;;;;11.43;7.65;;;;;;;14.12;83.08;99102.19;5009757;28;20034;-82
2022/10/30 00:15:12;;;;;;;14.38;8.55;;;;;;;13.98;82.95;99095.69;5026763;28;20402;-82
2022/10/30 00:17:38;;;;;;;12.50;8.50;;;;;;;13.92;83.26;99104.00;5025260;28;20116;-82
2022/10/30 00:20:03;;;;;;;13.95;8.60;;;;;;;13.74;83.29;99094.53;5030154;28;20092;-82
2022/10/30 00:22:29;;;;;;;12.50;7.65;;;;;;;13.96;83.14;99099.72;5030286;28;20033;-83
2022/10/30 00:24:54;;;;;;;13.60;8.25;;;;;;;13.82;83.48;99085.19;5024513;28;20025;-83
2022/10/30 00:27:20;;;;;;;15.65;8.98;;;;;;;13.76;83.49;99091.63;5015075;28;20436;-83
2022/10/30 00:29:45;;;;;;;14.00;7.82;;;;;;;13.62;83.69;99075.19;5011902;28;20052;-82
2022/10/30 00:32:10;;;;;;;11.13;8.00;;;;;;;13.75;83.31;99080.06;5002485;28;20076;-82
2022/10/30 00:34:36;;;;;;;16.08;8.05;;;;;;;13.70;83.76;99095.31;5030868;28;20393;-82
2022/10/30 00:37:01;;;;;;;13.02;8.18;;;;;;;13.70;83.64;99069.31;5025994;28;20661;-82
2022/10/30 00:39:27;;;;;;;11.68;8.23;;;;;;;13.70;83.62;99063.13;5021748;28;20026;-83
2022/10/30 00:41:52;;;;;;;16.83;8.90;;;;;;;13.78;83.17;99078.75;4977006;28;20036;-82
2022/10/30 00:44:30;;;;;;;16.70;8.30;;;;;;;13.57;83.63;99085.06;5025122;28;20029;-82
2022/10/30 00:46:55;;;;;;;17.98;8.75;;;;;;;13.52;84.52;99077.81;5027485;28;20033;-82
2022/10/30 00:49:21;;;;;;;16.13;9.65;;;;;;;13.69;83.49;99086.50;5028316;28;20968;-82
2022/10/30 00:51:51;;;;;;;13.32;8.80;;;;;;;13.66;82.98;99070.09;5012046;28;20091;-82
2022/10/30 00:54:18;;;;;;;14.48;8.93;;;;;;;13.57;83.79;99077.03;5023760;28;20038;-82
2022/10/30 00:56:46;;;;;;;13.65;8.18;;;;;;;13.39;84.26;99087.16;5005528;28;20413;-82
2022/10/30 00:59:17;;;;;;;18.20;9.00;;;;;;;13.70;83.60;99084.59;5020752;28;20046;-83
2022/10/30 01:01:45;;;;;;;14.45;8.13;;;;;;;13.68;82.96;99071.44;5025550;28;20040;-83
2022/10/30 01:04:12;;;;;;;14.13;7.40;;;;;;;13.89;82.30;99091.91;5024112;28;20033;-82
2022/10/30 01:06:41;;;;;;;11.27;7.68;;;;;;;13.71;82.94;99070.13;5037021;28;20040;-83
2022/10/30 01:09:06;;;;;;;13.93;7.20;;;;;;;13.64;83.48;99066.88;5009388;28;20102;-83
2022/10/30 01:11:32;;;;;;;13.30;8.90;;;;;;;13.72;83.43;99077.09;5028107;28;20112;-82
2022/10/30 01:14:02;;;;;;;15.90;7.88;;;;;;;13.61;83.28;99059.38;5005859;28;20114;-83
2022/10/30 01:16:30;;;;;;;16.95;8.10;;;;;;;13.77;82.88;99075.25;5022807;28;20439;-82
2022/10/30 01:19:23;;;;;;;16.95;8.88;;;;;;;13.48;84.38;99079.41;5009909;28;20068;-83
2022/10/30 01:22:21;;;;;;;14.80;8.13;;;;;;;12.96;86.62;99075.88;5033169;28;20116;-82
2022/10/30 01:24:50;;;;;;;11.95;7.50;;;;;;;12.87;87.04;99072.03;5025144;28;20101;-82
2022/10/30 01:27:37;;;;;;;11.73;7.68;;;;;;;13.56;84.32;99076.25;5007568;28;20033;-83
2022/10/30 01:30:51;;;;;;;17.00;7.55;;;;;;;13.66;83.30;99070.09;5021812;28;20029;-83
2022/10/30 01:33:42;;;;;;;16.20;7.88;;;;;;;13.59;83.78;99072.22;4974416;28;20045;-82
2022/10/30 01:36:21;;;;;;;11.70;7.05;;;;;;;13.54;83.51;99057.72;5020730;28;20372;-82
2022/10/30 01:38:52;;;;;;;12.48;7.85;;;;;;;13.66;83.47;99072.78;5024750;28;20032;-82
2022/10/30 01:41:18;;;;;;;11.65;8.10;;;;;;;13.63;83.17;99078.69;5018265;28;20037;-82
2022/10/30 01:43:47;;;;;;;14.32;7.85;;;;;;;13.64;83.62;99080.28;5002452;28;20040;-82
2022/10/30 01:46:36;;;;;;;18.88;8.95;;;;;;;13.45;83.63;99045.88;5018405;28;20083;-83
2022/10/30 01:49:26;;;;;;;11.68;7.57;;;;;;;13.50;83.78;99069.22;5023721;28;20053;-82
2022/10/30 01:52:13;;;;;;;15.60;7.78;;;;;;;13.62;83.50;99066.34;5019900;28;20111;-82
2022/10/30 01:54:51;;;;;;;15.63;7.20;;;;;;;13.61;83.29;99067.41;5024221;28;20107;-82
2022/10/30 01:57:37;;;;;;;11.90;7.53;;;;;;;13.33;83.86;99061.38;5004625;28;20044;-82
2022/10/30 02:00:08;;;;;;;12.50;7.75;;;;;;;13.63;83.64;99065.28;5018488;28;20490;-82
2022/10/30 02:02:34;;;;;;;12.88;7.82;;;;;;;13.41;84.32;99065.44;5020405;28;20128;-83
2022/10/30 02:04:59;;;;;;;15.95;8.30;;;;;;;13.65;82.57;99044.34;5005814;28;20461;-82
2022/10/30 02:07:25;;;;;;;11.57;7.05;;;;;;;13.75;82.70;99057.78;5025748;28;20503;-82
2022/10/30 02:09:52;;;;;;;14.60;6.80;;;;;;;13.88;82.13;99070.72;4990248;28;20106;-82
2022/10/30 02:12:19;;;;;;;10.48;6.72;;;;;;;13.74;82.61;99062.34;5018384;28;20723;-82
2022/10/30 02:14:48;;;;;;;9.70;7.15;;;;;;;13.34;83.56;99052.28;5006059;28;20029;-82
2022/10/30 02:17:14;;;;;;;10.32;6.93;;;;;;;13.46;83.60;99073.50;5023696;28;20040;-83
2022/10/30 02:19:40;;;;;;;15.57;7.53;;;;;;;13.37;83.95;99057.09;5023146;28;20076;-83
2022/10/30 02:22:05;;;;;;;12.82;7.18;;;;;;;13.28;84.51;99056.00;5017944;28;20034;-82
2022/10/30 02:24:31;;;;;;;12.68;7.95;;;;;;;13.21;84.57;99059.97;5018175;28;20034;-82
2022/10/30 02:26:57;;;;;;;15.18;7.75;;;;;;;13.37;84.75;99061.66;5022922;28;20032;-82
2022/10/30 02:29:22;;;;;;;14.07;7.65;;;;;;;13.40;83.53;99051.22;5017373;28;20021;-82
2022/10/30 02:31:48;;;;;;;12.32;8.02;;;;;;;13.44;83.56;99046.97;5003717;28;20076;-82
2022/10/30 02:34:14;;;;;;;13.05;7.05;;;;;;;13.47;83.54;99061.72;5003170;28;20069;-81
2022/10/30 02:36:39;;;;;;;12.23;7.25;;;;;;;13.17;84.58;99040.91;5006084;28;20086;-81
2022/10/30 02:39:07;;;;;;;16.02;7.72;;;;;;;13.46;83.24;99044.81;5016046;28;20029;-81
2022/10/30 02:41:32;;;;;;;12.80;6.70;;;;;;;13.40;83.91;99072.69;5024420;28;20030;-82
2022/10/30 02:43:58;;;;;;;16.08;6.95;;;;;;;13.26;84.83;99062.66;5020211;28;20033;-82
2022/10/30 02:46:23;;;;;;;10.13;7.45;;;;;;;13.35;84.35;99061.94;5022630;28;20031;-82
2022/10/30 02:48:49;;;;;;;14.35;8.20;;;;;;;13.23;84.68;99031.84;5004140;28;20091;-82
2022/10/30 02:51:14;;;;;;;13.40;7.45;;;;;;;13.44;83.61;99054.19;5019743;28;20052;-82
2022/10/30 02:53:39;;;;;;;11.20;7.78;;;;;;;13.41;83.96;99044.78;4998735;28;20076;-82
2022/10/30 02:56:08;;;;;;;14.07;7.32;;;;;;;13.20;84.46;99029.69;5007364;28;20026;-82
2022/10/30 02:58:34;;;;;;;11.85;7.35;;;;;;;13.21;84.17;99050.06;5018395;28;20033;-82
2022/10/30 03:01:14;;;;;;;12.68;7.43;;;;;;;13.34;84.22;99054.97;5005540;28;20030;-82
2022/10/30 03:03:40;;;;;;;12.82;6.72;;;;;;;13.42;83.99;99062.50;5017875;28;20397;-82
2022/10/30 03:06:09;;;;;;;10.60;6.05;;;;;;;13.40;84.00;99059.28;5021302;28;20030;-83
2022/10/30 03:08:35;;;;;;;14.55;7.75;;;;;;;13.42;83.62;99062.50;5022746;28;20072;-82
2022/10/30 03:11:07;;;;;;;16.35;7.53;;;;;;;13.37;83.84;99062.47;5021634;28;20022;-82
2022/10/30 03:13:34;;;;;;;11.63;7.00;;;;;;;13.44;83.87;99056.88;5018573;28;20064;-82
2022/10/30 03:16:00;;;;;;;16.08;8.93;;;;;;;13.19;84.35;99060.22;5019686;28;20029;-82
2022/10/30 03:18:26;;;;;;;11.48;6.85;;;;;;;13.40;83.77;99063.81;5016519;28;20018;-82
2022/10/30 03:20:55;;;;;;;18.35;8.38;;;;;;;12.87;85.58;99062.16;5022927;28;20424;-82
2022/10/30 03:23:21;;;;;;;10.38;7.22;;;;;;;13.45;83.92;99072.69;5023586;28;20080;-82
2022/10/30 03:25:46;;;;;;;16.92;7.95;;;;;;;13.34;83.28;99049.59;5030320;28;20447;-82
2022/10/30 03:28:11;;;;;;;9.82;6.32;;;;;;;13.36;83.28;99052.84;4974315;28;20550;-82
2022/10/30 03:30:37;;;;;;;17.70;7.03;;;;;;;13.60;83.03;99076.50;4992460;28;20528;-82
2022/10/30 03:33:02;;;;;;;10.43;8.30;;;;;;;12.98;85.29;99071.06;5024598;28;20029;-82
2022/10/30 03:35:27;;;;;;;13.07;7.03;;;;;;;13.37;83.70;99073.19;5026646;28;20044;-82
2022/10/30 03:37:53;;;;;;;10.52;7.28;;;;;;;13.32;83.74;99075.06;5004484;28;20025;-82
2022/10/30 03:40:18;;;;;;;13.35;6.88;;;;;;;13.26;84.13;99079.56;5026288;28;20052;-82
2022/10/30 03:42:43;;;;;;;14.60;8.02;;;;;;;12.96;85.26;99079.34;5011131;28;20583;-82
2022/10/30 03:45:09;;;;;;;9.90;7.53;;;;;;;13.25;83.69;99069.13;5007771;28;20027;-82
2022/10/30 03:47:34;;;;;;;14.15;8.02;;;;;;;13.32;83.60;99073.16;5032028;28;20029;-82
2022/10/30 03:49:59;;;;;;;13.57;7.75;;;;;;;13.41;83.44;99068.91;5027667;28;20036;-82
2022/10/30 03:52:26;;;;;;;14.23;7.45;;;;;;;13.37;83.20;99069.69;5027399;28;20125;-82
2022/10/30 03:54:51;;;;;;;16.48;8.55;;;;;;;12.55;85.43;99075.56;5027900;28;20029;-82
2022/10/30 03:57:16;;;;;;;14.73;7.82;;;;;;;12.56;85.79;99074.50;5010120;28;20041;-82
2022/10/30 03:59:42;;;;;;;21.88;7.38;;;;;;;13.06;84.16;99078.66;5006571;28;20096;-82
2022/10/30 04:02:07;;;;;;;15.15;7.63;;;;;;;12.70;83.91;99064.16;5027698;28;20029;-82
2022/10/30 04:04:32;;;;;;;11.40;6.55;;;;;;;13.04;83.52;99068.16;4996519;28;20455;-82
2022/10/30 04:06:58;;;;;;;11.05;7.15;;;;;;;12.86;83.17;99055.19;4981347;28;20660;-82
2022/10/30 04:09:23;;;;;;;13.77;7.50;;;;;;;12.90;84.78;99079.59;5028103;28;20017;-82
2022/10/30 04:11:48;;;;;;;21.85;8.38;;;;;;;12.31;85.49;99081.50;4991781;28;20092;-82
2022/10/30 04:14:14;;;;;;;15.20;8.73;;;;;;;12.11;85.97;99071.41;5007153;28;20037;-82
2022/10/30 04:16:39;;;;;;;15.98;8.30;;;;;;;11.77;87.82;99060.06;5023345;28;21156;-82
2022/10/30 04:19:04;;;;;;;22.10;8.85;;;;;;;11.32;89.80;99063.00;5010917;28;20400;-82
2022/10/30 04:21:30;;;;;;;17.70;8.95;;;;;;;11.22;91.13;99070.06;5029548;28;20389;-83
2022/10/30 04:23:56;;;;;;;16.85;9.25;;;;;;;11.23;90.67;99064.47;4976908;28;20033;-82
2022/10/30 04:26:21;;;;;;;17.45;9.90;;;;;;;10.94;92.90;99068.31;4993031;28;20033;-82
2022/10/30 04:28:47;;;;;;;15.95;7.80;;;;;;;12.27;87.85;99067.03;4995161;28;20125;-82
2022/10/30 04:31:12;;;;;;;12.07;6.95;;;;;;;12.56;85.29;99066.47;5009356;28;20416;-82
2022/10/30 04:33:37;;;;;;;11.02;7.60;;;;;;;12.67;84.55;99068.16;5007547;28;20075;-82
2022/10/30 04:36:03;;;;;;;9.90;6.95;;;;;;;12.56;84.54;99049.59;5013934;28;20033;-82
2022/10/30 04:38:28;;;;;;;8.70;6.53;;;;;;;12.68;84.13;99056.41;5024713;28;20029;-82
2022/10/30 04:40:54;;;;;;;14.90;7.05;;;;;;;12.56;84.25;99053.06;5009877;28;20061;-82
2022/10/30 04:43:19;;;;;;;15.48;7.82;;;;;;;12.67;84.13;99051.28;5030129;28;20045;-82
2022/10/30 04:45:44;;;;;;;12.93;7.35;;;;;;;12.35;84.66;99031.75;5029650;28;20033;-82
2022/10/30 04:48:13;;;;;;;14.43;7.63;;;;;;;12.53;84.27;99042.91;5015227;28;20060;-82
2022/10/30 04:50:39;;;;;;;15.77;8.25;;;;;;;12.57;83.84;99052.03;5012278;28;20048;-82
2022/10/30 04:53:16;;;;;;;13.60;7.50;;;;;;;12.66;83.93;99055.84;5028716;28;20033;-82
2022/10/30 04:55:43;;;;;;;14.35;7.32;;;;;;;12.48;83.91;99047.38;5026579;28;20418;-82
2022/10/30 04:58:09;;;;;;;12.77;7.95;;;;;;;12.54;84.17;99059.75;5022459;28;20068;-82
2022/10/30 05:00:35;;;;;;;12.23;6.85;;;;;;;12.50;84.25;99053.28;5024479;28;20108;-82
2022/10/30 05:03:01;;;;;;;13.32;7.70;;;;;;;12.47;83.65;99040.44;5027196;28;20128;-82
2022/10/30 05:05:30;;;;;;;14.43;7.07;;;;;;;12.39;84.05;99019.47;5021431;28;20030;-83
2022/10/30 05:07:56;;;;;;;14.88;8.18;;;;;;;12.21;84.23;99043.97;5023154;28;20108;-83
2022/10/30 05:10:22;;;;;;;11.50;7.22;;;;;;;12.30;84.53;99048.56;5025674;28;20183;-83
2022/10/30 05:12:47;;;;;;;21.85;8.55;;;;;;;11.44;88.25;99048.72;5009202;28;20029;-82
2022/10/30 05:15:13;;;;;;;20.23;9.98;;;;;;;11.38;87.54;99042.47;5004521;28;20424;-82
2022/10/30 05:17:39;;;;;;;17.40;9.23;;;;;;;11.28;88.19;99045.84;5022589;28;20044;-82
2022/10/30 05:20:06;;;;;;;14.18;7.70;;;;;;;12.11;85.76;99054.53;5006871;28;20029;-81
2022/10/30 05:22:32;;;;;;;16.88;7.70;;;;;;;12.34;84.23;99055.03;5026397;28;20162;-82
2022/10/30 05:24:57;;;;;;;12.07;7.28;;;;;;;12.27;84.38;99056.31;5002287;28;20029;-82
2022/10/30 05:27:23;;;;;;;10.25;7.75;;;;;;;12.43;83.65;99066.06;5020161;28;20075;-82
2022/10/30 05:29:48;;;;;;;11.65;7.30;;;;;;;12.37;83.41;99051.03;5021868;28;20398;-82
2022/10/30 05:32:13;;;;;;;14.55;8.27;;;;;;;11.23;88.52;99047.63;5006030;28;20049;-82
2022/10/30 05:34:39;;;;;;;12.30;7.75;;;;;;;12.10;85.10;99055.63;5005809;28;20026;-82
2022/10/30 05:37:04;;;;;;;15.75;7.90;;;;;;;12.25;84.48;99055.75;5008873;28;20029;-82
2022/10/30 05:39:29;;;;;;;18.23;8.20;;;;;;;12.00;84.95;99048.28;5006680;28;20036;-82
2022/10/30 05:41:55;;;;;;;19.30;8.70;;;;;;;12.18;84.38;99057.84;5008241;28;20029;-82
2022/10/30 05:44:20;;;;;;;10.77;7.93;;;;;;;11.79;85.69;99049.16;5004624;28;20033;-82
2022/10/30 05:46:46;;;;;;;18.58;9.88;;;;;;;12.02;84.30;99068.38;5003587;28;20052;-82
2022/10/30 05:49:11;;;;;;;27.23;9.35;;;;;;;11.53;86.31;99068.59;5021200;28;20037;-82
2022/10/30 05:51:37;;;;;;;12.18;7.70;;;;;;;12.10;84.64;99061.75;5004058;28;20026;-82
2022/10/30 05:54:02;;;;;;;22.27;10.10;;;;;;;11.91;84.65;99080.03;5004749;28;20031;-82
2022/10/30 05:56:27;;;;;;;19.38;8.93;;;;;;;12.23;84.02;99076.63;5019062;28;20167;-82
2022/10/30 05:58:53;;;;;;;15.65;8.90;;;;;;;12.26;83.90;99084.94;5004382;28;20071;-82
2022/10/30 06:01:18;;;;;;;11.85;7.93;;;;;;;12.11;84.30;99075.94;5006512;28;20056;-82
2022/10/30 06:03:44;;;;;;;17.73;9.57;;;;;;;11.76;84.34;99071.03;5027578;28;20041;-82
2022/10/30 06:06:09;;;;;;;11.07;7.22;;;;;;;12.08;84.28;99079.94;5021266;28;20029;-82
2022/10/30 06:08:35;;;;;;;10.18;7.57;;;;;;;11.80;85.32;99061.44;5022626;28;20477;-82
2022/10/30 06:11:00;;;;;;;14.38;9.02;;;;;;;11.15;87.64;99050.75;5005375;28;20026;-82
2022/10/30 06:13:25;;;;;;;13.57;7.90;;;;;;;11.92;84.96;99068.28;5022556;28;20035;-82
2022/10/30 06:15:53;;;;;;;15.05;8.02;;;;;;;12.06;84.01;99073.25;5005278;28;20053;-82
2022/10/30 06:18:19;;;;;;;15.35;7.70;;;;;;;12.07;83.90;99074.84;5011642;28;20034;-82
2022/10/30 06:20:44;;;;;;;13.77;8.48;;;;;;;12.08;83.82;99065.78;5026965;28;20083;-82
2022/10/30 06:23:10;;;;;;;11.15;7.43;;;;;;;12.10;83.62;99079.72;5005461;28;20029;-82
2022/10/30 06:25:35;;;;;;;29.98;8.60;;;;;;;12.03;83.42;99056.63;5017274;28;20040;-82
2022/10/30 06:28:01;;;;;;;11.70;7.50;;;;;;;12.10;83.78;99090.41;5001677;28;20067;-82
2022/10/30 06:30:28;;;;;;;12.80;7.20;;;;;;;12.16;83.21;99078.69;5021698;28;20030;-82
2022/10/30 06:33:01;;;;;;;12.48;7.55;;;;;;;12.04;83.37;99062.78;5023527;28;20401;-82
2022/10/30 06:35:27;;;;;;;14.40;7.63;;;;;;;12.15;83.31;99082.41;5024506;28;20644;-82
2022/10/30 06:37:54;;;;;;;10.80;7.13;;;;;;;12.10;83.60;99090.41;5006324;28;20485;-82
2022/10/30 06:40:20;;;;;;;15.40;7.40;;;;;;;12.01;83.65;99076.69;5020361;28;20029;-82
2022/10/30 06:42:47;;;;;;;16.38;8.52;;;;;;;12.20;83.66;99090.50;5004561;28;20117;-82
2022/10/30 06:45:14;;;;;;;11.57;8.18;;;;;;;12.17;83.35;99096.34;5019285;28;20040;-82
2022/10/30 06:47:40;;;;;;;12.63;8.35;;;;;;;11.95;83.93;99064.28;5004165;28;20029;-82
2022/10/30 06:50:08;;;;;;;17.63;7.80;;;;;;;12.08;83.53;99071.13;5023946;28;20156;-82
2022/10/30 06:52:33;;;;;;;13.48;7.80;;;;;;;11.97;84.11;99084.38;5003255;28;20510;-82
2022/10/30 06:54:59;;;;;;;23.13;9.65;;;;;;;11.97;83.91;99097.75;5019219;28;20029;-82
2022/10/30 06:57:24;;;;;;;11.02;8.38;;;;;;;12.07;83.87;99089.03;5020627;28;20115;-82
2022/10/30 06:59:49;;;;;;;13.32;7.70;;;;;;;12.06;84.07;99100.00;5007812;28;20039;-82
2022/10/30 07:02:15;;;;;;;16.65;7.57;;;;;;;12.13;83.93;99100.59;5017708;28;21676;-82
2022/10/30 07:04:40;;;;;;;9.27;6.13;;;;;;;12.18;84.15;99108.69;4992742;28;20091;-82
2022/10/30 07:07:05;;;;;;;12.10;8.10;;;;;;;12.14;84.04;99112.91;5003471;28;20486;-82
2022/10/30 07:09:31;;;;;;;10.27;6.90;;;;;;;12.18;83.73;99097.97;5027693;28;20144;-82
2022/10/30 07:11:57;;;;;;;12.00;8.13;;;;;;;12.14;83.76;99096.88;5019949;28;20060;-81
2022/10/30 07:14:23;;;;;;;11.77;7.85;;;;;;;12.13;83.68;99098.72;4988592;28;20049;-82
2022/10/30 07:16:48;;;;;;;12.25;7.65;;;;;;;12.21;83.72;99102.84;5000565;28;20030;-82
2022/10/30 07:19:13;;;;;;;11.38;8.38;;;;;;;12.10;83.77;99101.91;5022692;28;20669;-82
2022/10/30 07:21:39;;;;;;;15.68;8.85;;;;;;;12.26;84.15;99114.38;4999975;28;21217;-82
2022/10/30 07:24:04;;;;;;;15.32;8.55;;;;;;;12.16;83.93;99084.03;4987796;28;20143;-82
2022/10/30 07:26:29;;;;;;;13.70;7.15;;;;;;;12.27;84.56;99107.97;4970791;28;20707;-82
2022/10/30 07:28:55;;;;;;;12.18;7.53;;;;;;;12.20;84.59;99095.84;5021153;28;20029;-82
2022/10/30 07:31:20;;;;;;;20.05;10.05;;;;;;;11.79;88.15;99111.47;4989268;28;20072;-82
2022/10/30 07:33:46;;;;;;;18.58;10.98;;;;;;;11.15;93.21;99113.00;5000068;28;20071;-81
2022/10/30 07:36:11;;;;;;;28.23;12.40;;;;;;;10.99;94.55;99105.00;5017781;28;20422;-82
2022/10/30 07:38:37;;;;;;;12.32;8.13;;;;;;;11.59;90.06;99111.19;5024329;28;20183;-82
2022/10/30 07:41:02;;;;;;;13.13;8.05;;;;;;;12.01;86.47;99106.09;5022545;28;20040;-82
2022/10/30 07:43:27;;;;;;;14.55;8.50;;;;;;;12.36;84.92;99121.72;5026383;28;20029;-82
2022/10/30 07:45:53;;;;;;;14.27;7.93;;;;;;;12.33;84.64;99124.88;5026599;28;20057;-82
2022/10/30 07:48:18;;;;;;;11.45;8.02;;;;;;;12.36;84.83;99137.78;5024445;28;20124;-82
2022/10/30 07:50:44;;;;;;;14.10;8.63;;;;;;;12.00;86.39;99124.00;4975321;28;20068;-82
2022/10/30 07:53:09;;;;;;;26.40;9.82;;;;;;;12.09;87.54;99137.75;5015576;28;20531;-82
2022/10/30 07:55:34;;;;;;;13.02;7.28;;;;;;;12.26;85.40;99135.78;5024077;28;20045;-82
2022/10/30 07:58:00;;;;;;;16.83;8.75;;;;;;;11.67;90.93;99116.13;5010645;28;20037;-82
2022/10/30 08:00:25;;;;;;;16.00;7.82;;;;;;;11.94;88.56;99135.72;5009238;28;20065;-82
2022/10/30 08:02:54;;;;;;;23.48;11.40;;;;;;;11.59;92.85;99123.75;5011877;28;20094;-82
2022/10/30 08:05:20;;;;;;;15.32;10.52;;;;;;;11.98;89.57;99136.03;5007153;28;20048;-82
2022/10/30 08:07:46;;;;;;;22.08;10.75;;;;;;;11.31;93.42;99071.28;5011276;28;20389;-82
2022/10/30 08:10:12;;;;;;;25.77;11.77;;;;;;;11.60;95.40;99134.19;5025966;28;20125;-82
2022/10/30 08:12:39;;;;;;;21.63;9.30;;;;;;;11.69;95.04;99142.59;5021688;28;20556;-82
2022/10/30 08:15:06;;;;;;;23.40;12.70;;;;;;;11.64;96.65;99131.84;5005765;28;20044;-82
2022/10/30 08:17:31;;;;;;;25.00;12.57;;;;;;;11.76;94.65;99127.19;5018872;28;20359;-82
2022/10/30 08:19:56;;;;;;;15.15;10.48;;;;;;;11.71;95.68;99119.91;5024544;28;20099;-82
2022/10/30 08:22:22;;;;;;;12.30;7.50;;;;;;;12.20;88.11;99125.28;5003819;28;20074;-82
2022/10/30 08:24:47;;;;;;;18.33;9.43;;;;;;;12.11;92.25;99127.59;5004550;28;20034;-82
2022/10/30 08:27:13;;;;;;;13.10;8.38;;;;;;;12.23;87.73;99116.75;5024084;28;20030;-82
2022/10/30 08:29:38;;;;;;;25.27;11.75;;;;;;;12.19;95.17;99137.84;5021698;28;20469;-82
2022/10/30 08:32:04;;;;;;;14.98;8.30;;;;;;;12.31;88.50;99119.78;5026399;28;20040;-82
2022/10/30 08:34:31;;;;;;;21.75;12.45;;;;;;;12.33;94.94;99119.53;5023536;28;20041;-82
2022/10/30 08:36:57;;;;;;;21.80;11.93;;;;;;;12.38;92.22;99127.63;5005694;28;20029;-83
2022/10/30 08:39:22;;;;;;;23.83;10.57;;;;;;;12.38;95.37;99123.09;5026043;28;21437;-82
2022/10/30 08:41:47;;;;;;;24.05;11.43;;;;;;;12.25;95.43;99111.97;5025977;28;20030;-82
2022/10/30 08:44:13;;;;;;;12.05;7.88;;;;;;;12.37;90.99;99129.47;5007497;28;20029;-81
2022/10/30 08:46:38;;;;;;;13.23;7.30;;;;;;;12.42;90.76;99120.69;5016883;28;20031;-82
2022/10/30 08:49:04;;;;;;;13.30;7.97;;;;;;;12.62;87.06;99116.31;5004907;28;20377;-82
2022/10/30 08:51:33;;;;;;;11.57;7.28;;;;;;;12.72;86.24;99113.75;5017098;28;20472;-82
2022/10/30 08:53:59;;;;;;;12.52;7.22;;;;;;;12.74;88.71;99113.47;5023862;28;20033;-81
2022/10/30 08:56:25;;;;;;;14.70;8.75;;;;;;;12.51;90.63;99079.84;5017938;28;20088;-82
2022/10/30 08:58:51;;;;;;;13.43;8.27;;;;;;;12.85;86.75;99109.00;4998980;28;20494;-81
2022/10/30 09:01:17;;;;;;;14.65;8.27;;;;;;;12.79;87.11;99105.50;5019438;28;20092;-81
2022/10/30 09:03:43;;;;;;;12.52;8.48;;;;;;;12.87;87.52;99107.69;5001598;28;20065;-82
2022/10/30 09:06:09;;;;;;;11.68;8.00;;;;;;;12.89;87.23;99104.78;5024768;28;20061;-81
2022/10/30 09:08:34;;;;;;;14.70;8.35;;;;;;;12.92;87.18;99099.69;5005075;28;20564;-84
2022/10/30 09:11:00;;;;;;;15.43;8.82;;;;;;;12.88;87.30;99095.09;5019417;28;20501;-83
2022/10/30 09:13:26;;;;;;;15.38;8.43;;;;;;;12.93;87.56;99100.50;5019724;28;20033;-81
2022/10/30 09:15:51;;;;;;;14.45;8.43;;;;;;;13.02;86.96;99082.91;5017065;28;20036;-81
2022/10/30 09:18:17;;;;;;;15.88;8.63;;;;;;;12.96;87.10;99084.72;4998554;28;20034;-81
2022/10/30 09:20:42;;;;;;;21.83;10.07;;;;;;;12.96;88.75;99082.03;5019751;28;20033;-82
2022/10/30 09:23:08;;;;;;;21.17;10.85;;;;;;;13.01;95.29;99075.91;5016639;28;20033;-81
2022/10/30 09:25:33;;;;;;;22.08;11.30;;;;;;;12.96;92.58;99082.03;5001326;28;20973;-81
2022/10/30 09:27:59;;;;;;;23.95;12.30;;;;;;;13.14;95.95;99097.75;4983793;28;20026;-81
2022/10/30 09:30:25;;;;;;;48.17;14.25;;;;;;;13.02;94.17;99075.63;4999231;28;20041;-83
2022/10/30 09:33:01;;;;;;;23.50;11.82;;;;;;;13.16;94.26;99092.94;4994912;28;20033;-81
2022/10/30 09:35:27;;;;;;;22.80;10.50;;;;;;;13.01;91.88;99082.06;5004805;28;20034;-81
2022/10/30 09:37:53;;;;;;;15.65;8.05;;;;;;;13.25;88.58;99090.56;5014649;28;20033;-82
2022/10/30 09:40:57;;;;;;;17.25;9.73;;;;;;;13.19;89.88;99095.06;5016935;28;20091;-81
2022/10/30 09:43:46;;;;;;;19.75;8.98;;;;;;;13.25;90.28;99102.09;5017546;28;20087;-83
2022/10/30 09:46:28;;;;;;;12.77;7.35;;;;;;;13.34;88.08;99102.41;5018447;28;20025;-81
2022/10/30 09:49:06;;;;;;;14.55;9.00;;;;;;;13.52;87.31;99099.25;4999767;28;20029;-81
2022/10/30 09:51:43;;;;;;;13.38;7.75;;;;;;;13.63;86.82;99100.16;5020306;28;21949;-81
2022/10/30 09:54:37;;;;;;;12.20;8.02;;;;;;;13.46;86.86;99086.91;5015057;28;20030;-82
2022/10/30 09:57:27;;;;;;;20.10;11.10;;;;;;;13.51;88.53;99116.44;5016559;28;20096;-83
2022/10/30 10:00:11;;;;;;;18.50;9.55;;;;;;;13.54;89.04;99121.28;4997125;28;20127;-84
2022/10/30 10:03:04;;;;;;;20.13;10.00;;;;;;;13.49;93.03;99119.38;5020851;28;20021;-83
2022/10/30 10:05:42;;;;;;;26.20;11.25;;;;;;;13.50;93.86;99129.03;5016981;28;20405;-82
2022/10/30 10:08:15;;;;;;;30.00;10.80;;;;;;;13.54;93.78;99106.00;5016648;28;20545;-83
2022/10/30 10:10:47;;;;;;;19.63;10.88;;;;;;;13.57;94.32;99099.31;5016933;28;20029;-83
2022/10/30 10:13:31;;;;;;;18.27;8.55;;;;;;;13.71;92.36;99126.47;5012907;28;20402;-82
2022/10/30 10:16:06;;;;;;;15.77;9.35;;;;;;;13.78;91.85;99127.03;5014245;28;20029;-82
2022/10/30 10:18:38;;;;;;;17.30;8.68;;;;;;;13.70;91.09;99116.78;5002307;28;20038;-83
2022/10/30 10:21:14;;;;;;;17.17;9.32;;;;;;;13.83;92.00;99121.66;5020594;28;20021;-83
2022/10/30 10:23:52;;;;;;;15.25;8.55;;;;;;;13.90;89.12;99101.59;5014831;28;20581;-82
2022/10/30 10:26:41;;;;;;;19.10;9.50;;;;;;;13.80;90.30;99098.06;5006762;28;20033;-82
2022/10/30 10:29:20;;;;;;;14.93;7.90;;;;;;;14.16;88.38;99124.75;5006619;28;20040;-83
2022/10/30 10:31:51;;;;;;;17.50;9.63;;;;;;;14.19;88.48;99129.59;5022740;28;20409;-84
2022/10/30 10:34:48;;;;;;;14.27;8.85;;;;;;;14.10;90.40;99119.63;5018902;28;20037;-83
2022/10/30 10:37:30;;;;;;;23.45;8.95;;;;;;;14.11;91.09;99102.44;5018421;28;20095;-82
2022/10/30 10:40:00;;;;;;;15.07;8.25;;;;;;;14.32;89.26;99098.78;5023181;28;20033;-80
2022/10/30 10:42:35;;;;;;;16.50;8.55;;;;;;;14.43;88.96;99111.13;5022834;28;20507;-83
2022/10/30 10:45:24;;;;;;;13.02;7.25;;;;;;;14.54;88.31;99110.06;5013721;28;20030;-83
2022/10/30 10:48:16;;;;;;;17.48;8.98;;;;;;;14.54;89.57;99107.41;5007116;28;20048;-83
2022/10/30 10:50:55;;;;;;;18.42;9.45;;;;;;;14.38;90.07;99080.78;5007969;28;20036;-83
2022/10/30 10:53:26;;;;;;;14.00;7.88;;;;;;;14.62;88.48;99098.78;5034318;28;20155;-83
2022/10/30 10:55:56;;;;;;;16.08;8.20;;;;;;;14.81;87.96;99099.84;5025147;28;20525;-83
2022/10/30 10:58:24;;;;;;;18.55;9.65;;;;;;;14.83;88.29;99097.72;5015686;28;20021;-83
2022/10/30 11:00:51;;;;;;;16.52;8.10;;;;;;;14.85;87.91;99095.56;5029803;28;20039;-83
2022/10/30 11:03:22;;;;;;;24.67;8.38;;;;;;;14.91;87.73;99086.44;5017393;28;20639;-83
2022/10/30 11:05:55;;;;;;;17.40;7.55;;;;;;;15.03;86.76;99095.00;5005428;28;20036;-83
2022/10/30 11:08:29;;;;;;;16.95;7.35;;;;;;;15.13;86.29;99094.19;5004561;28;20033;-83
2022/10/30 11:10:59;;;;;;;13.10;7.13;;;;;;;15.09;86.70;99089.63;5014781;28;20037;-82
2022/10/30 11:13:33;;;;;;;19.08;7.65;;;;;;;15.14;86.01;99074.28;5006812;28;20030;-83
2022/10/30 11:16:23;;;;;;;17.85;8.35;;;;;;;15.28;85.85;99091.47;5006913;28;20561;-83
2022/10/30 11:18:54;;;;;;;17.95;8.75;;;;;;;15.21;86.37;99068.63;5023136;28;20025;-83
2022/10/30 11:21:25;;;;;;;14.05;7.80;;;;;;;15.29;87.15;99086.91;5021469;28;20057;-83
2022/10/30 11:23:52;;;;;;;17.98;8.30;;;;;;;15.31;86.38;99074.78;5025097;28;20037;-83
2022/10/30 11:26:17;;;;;;;18.10;7.75;;;;;;;15.44;86.07;99084.19;5008101;28;20516;-83
2022/10/30 11:29:05;;;;;;;19.58;8.45;;;;;;;15.55;85.60;99073.13;5016681;28;20029;-82
2022/10/30 11:31:38;;;;;;;13.52;7.65;;;;;;;15.68;85.67;99075.22;5004437;28;20045;-83